Portada
METAR-TAF:

METAR-TAF

Aeroports :

Skaka, Aràbia Saudita

latitud: 29-47N, longitud: 040-06E, altitud: 689 m

Observació

L'informe es va fer fa 1 hora i 7 minuts, a les 13:00 UTC
Vent 12 kt del Oest
Temperatura 38°C
Humitat 9%
Pressió 1011 hPa
Visibilitat 10 km o més
sense núvols per sota de 1500 mi sense presència de cumulonimbus.

METAR: OESK 201300Z 28012KT CAVOK 38/M01 Q1011

Hora: 17:07 (14:07 UTC)

Pronòstic

L'informe es va fer fa 3 hores i 7 minuts, a les 11:00 UTC
Pronòstic vàlid del 20 a les 12 UTC al 21 a les 18 UTC
Vent 12 kt del Oest
Visibilitat 10 km o més
sense núvols per sota de 1500 mi sense presència de cumulonimbus.

TAF: OESK 201100Z 2012/2118 27012KT CAVOK

Observacions i pronòstics meteorològics de més de 4000 aeroports (METAR i TAF).

Les estacions disponibles són els punts grocs i vermells al mapa.

Posi el ratolí al punt desitjat per veure el nom de l'estació.

Feu clic per veure les observacions i els pronòstics meteorològics.

Per canviar el mapa: feu clic els botons verds amb una creu de color negre per apropar; al botó verd amb un guió per allunyar la imatge; o en les fletxes verdes per a mapes adjacents.


METAR-TAF: